sensor_id;sensor_type;location;lat;lon;timestamp;temperature;humidity
12413;DHT22;13877;18.896;-99.222;2023-02-28T00:01:30;32.90;14.90
12413;DHT22;13877;18.896;-99.222;2023-02-28T00:03:58;32.50;14.70
12413;DHT22;13877;18.896;-99.222;2023-02-28T00:06:25;32.30;14.60
12413;DHT22;13877;18.896;-99.222;2023-02-28T00:08:52;32.10;15.50
12413;DHT22;13877;18.896;-99.222;2023-02-28T00:11:20;31.60;16.30
12413;DHT22;13877;18.896;-99.222;2023-02-28T00:13:47;31.00;16.00
12413;DHT22;13877;18.896;-99.222;2023-02-28T00:16:18;30.60;15.50
12413;DHT22;13877;18.896;-99.222;2023-02-28T00:18:47;30.20;16.60
12413;DHT22;13877;18.896;-99.222;2023-02-28T00:21:14;29.80;17.20
12413;DHT22;13877;18.896;-99.222;2023-02-28T00:23:42;29.60;16.90
12413;DHT22;13877;18.896;-99.222;2023-02-28T00:26:09;29.50;17.90
12413;DHT22;13877;18.896;-99.222;2023-02-28T00:28:37;29.30;18.60
12413;DHT22;13877;18.896;-99.222;2023-02-28T00:31:03;29.00;18.90
12413;DHT22;13877;18.896;-99.222;2023-02-28T00:33:31;28.70;19.70
12413;DHT22;13877;18.896;-99.222;2023-02-28T00:36:16;28.50;19.80
12413;DHT22;13877;18.896;-99.222;2023-02-28T00:38:43;28.20;18.70
12413;DHT22;13877;18.896;-99.222;2023-02-28T00:41:10;27.80;19.20
12413;DHT22;13877;18.896;-99.222;2023-02-28T00:43:39;27.50;20.00
12413;DHT22;13877;18.896;-99.222;2023-02-28T00:46:06;27.20;20.20
12413;DHT22;13877;18.896;-99.222;2023-02-28T00:48:34;27.00;20.50
12413;DHT22;13877;18.896;-99.222;2023-02-28T00:51:01;26.70;20.70
12413;DHT22;13877;18.896;-99.222;2023-02-28T00:53:29;26.60;21.00
12413;DHT22;13877;18.896;-99.222;2023-02-28T00:55:57;27.00;22.20
12413;DHT22;13877;18.896;-99.222;2023-02-28T00:58:26;27.10;21.50
12413;DHT22;13877;18.896;-99.222;2023-02-28T01:00:54;27.20;22.50
12413;DHT22;13877;18.896;-99.222;2023-02-28T01:03:21;27.20;23.80
12413;DHT22;13877;18.896;-99.222;2023-02-28T01:05:49;27.20;24.20
12413;DHT22;13877;18.896;-99.222;2023-02-28T01:08:16;27.10;25.10
12413;DHT22;13877;18.896;-99.222;2023-02-28T01:10:43;27.00;24.80
12413;DHT22;13877;18.896;-99.222;2023-02-28T01:13:11;26.90;25.30
12413;DHT22;13877;18.896;-99.222;2023-02-28T01:15:41;26.80;25.70
12413;DHT22;13877;18.896;-99.222;2023-02-28T01:18:11;26.80;25.50
12413;DHT22;13877;18.896;-99.222;2023-02-28T01:20:39;26.70;25.40
12413;DHT22;13877;18.896;-99.222;2023-02-28T01:23:05;26.50;25.50
12413;DHT22;13877;18.896;-99.222;2023-02-28T01:25:37;26.50;25.60
12413;DHT22;13877;18.896;-99.222;2023-02-28T01:28:05;26.40;25.50
12413;DHT22;13877;18.896;-99.222;2023-02-28T01:30:32;26.30;25.60
12413;DHT22;13877;18.896;-99.222;2023-02-28T01:32:59;26.10;25.70
12413;DHT22;13877;18.896;-99.222;2023-02-28T01:35:26;26.00;25.80
12413;DHT22;13877;18.896;-99.222;2023-02-28T01:37:54;26.00;25.90
12413;DHT22;13877;18.896;-99.222;2023-02-28T01:40:21;25.90;25.90
12413;DHT22;13877;18.896;-99.222;2023-02-28T01:42:48;25.80;25.90
12413;DHT22;13877;18.896;-99.222;2023-02-28T01:45:31;25.60;26.20
12413;DHT22;13877;18.896;-99.222;2023-02-28T01:48:06;25.70;26.10
12413;DHT22;13877;18.896;-99.222;2023-02-28T01:50:37;25.60;26.30
12413;DHT22;13877;18.896;-99.222;2023-02-28T01:53:06;25.50;26.20
12413;DHT22;13877;18.896;-99.222;2023-02-28T01:55:35;25.50;26.40
12413;DHT22;13877;18.896;-99.222;2023-02-28T01:58:05;25.50;26.20
12413;DHT22;13877;18.896;-99.222;2023-02-28T02:00:33;25.40;26.10
12413;DHT22;13877;18.896;-99.222;2023-02-28T02:03:06;25.50;25.90
12413;DHT22;13877;18.896;-99.222;2023-02-28T02:05:37;25.40;25.80
12413;DHT22;13877;18.896;-99.222;2023-02-28T02:08:09;25.50;25.80
12413;DHT22;13877;18.896;-99.222;2023-02-28T02:10:44;25.50;25.60
12413;DHT22;13877;18.896;-99.222;2023-02-28T02:19:01;25.40;25.60
12413;DHT22;13877;18.896;-99.222;2023-02-28T02:22:12;25.40;25.70
12413;DHT22;13877;18.896;-99.222;2023-02-28T02:24:54;25.30;25.60
12413;DHT22;13877;18.896;-99.222;2023-02-28T02:32:54;25.20;25.90
12413;DHT22;13877;18.896;-99.222;2023-02-28T02:36:16;25.20;26.00
12413;DHT22;13877;18.896;-99.222;2023-02-28T02:43:45;25.20;26.10
12413;DHT22;13877;18.896;-99.222;2023-02-28T02:46:18;25.10;26.20
12413;DHT22;13877;18.896;-99.222;2023-02-28T02:48:46;25.00;26.20
12413;DHT22;13877;18.896;-99.222;2023-02-28T02:51:17;25.10;26.10
12413;DHT22;13877;18.896;-99.222;2023-02-28T02:53:55;25.10;25.90
12413;DHT22;13877;18.896;-99.222;2023-02-28T02:56:26;25.20;25.70
12413;DHT22;13877;18.896;-99.222;2023-02-28T02:58:56;25.20;25.70
12413;DHT22;13877;18.896;-99.222;2023-02-28T03:01:25;25.20;25.50
12413;DHT22;13877;18.896;-99.222;2023-02-28T03:04:04;25.30;26.00
12413;DHT22;13877;18.896;-99.222;2023-02-28T03:06:32;25.30;25.30
12413;DHT22;13877;18.896;-99.222;2023-02-28T03:09:00;25.30;25.10
12413;DHT22;13877;18.896;-99.222;2023-02-28T03:11:28;25.40;25.60
12413;DHT22;13877;18.896;-99.222;2023-02-28T03:15:00;25.40;24.90
12413;DHT22;13877;18.896;-99.222;2023-02-28T03:17:24;25.40;24.90
12413;DHT22;13877;18.896;-99.222;2023-02-28T03:31:02;24.90;25.30
12413;DHT22;13877;18.896;-99.222;2023-02-28T03:33:39;24.70;25.50
12413;DHT22;13877;18.896;-99.222;2023-02-28T03:36:15;24.80;25.30
12413;DHT22;13877;18.896;-99.222;2023-02-28T03:38:51;25.00;25.10
12413;DHT22;13877;18.896;-99.222;2023-02-28T03:41:29;25.00;24.90
12413;DHT22;13877;18.896;-99.222;2023-02-28T03:44:02;25.00;24.90
12413;DHT22;13877;18.896;-99.222;2023-02-28T03:46:33;25.00;24.80
12413;DHT22;13877;18.896;-99.222;2023-02-28T03:49:16;25.10;24.50
12413;DHT22;13877;18.896;-99.222;2023-02-28T03:51:46;25.20;24.10
12413;DHT22;13877;18.896;-99.222;2023-02-28T03:54:45;25.30;24.00
12413;DHT22;13877;18.896;-99.222;2023-02-28T03:57:46;25.20;24.10
12413;DHT22;13877;18.896;-99.222;2023-02-28T04:00:34;25.10;24.10
12413;DHT22;13877;18.896;-99.222;2023-02-28T04:03:04;25.00;24.10
12413;DHT22;13877;18.896;-99.222;2023-02-28T04:05:32;24.90;24.00
12413;DHT22;13877;18.896;-99.222;2023-02-28T04:08:10;24.90;24.10
12413;DHT22;13877;18.896;-99.222;2023-02-28T04:10:36;25.00;24.40
12413;DHT22;13877;18.896;-99.222;2023-02-28T04:13:04;24.70;24.70
12413;DHT22;13877;18.896;-99.222;2023-02-28T04:15:31;24.50;24.80
12413;DHT22;13877;18.896;-99.222;2023-02-28T04:17:58;24.40;24.90
12413;DHT22;13877;18.896;-99.222;2023-02-28T04:20:25;24.30;24.90
12413;DHT22;13877;18.896;-99.222;2023-02-28T04:22:51;24.40;24.90
12413;DHT22;13877;18.896;-99.222;2023-02-28T04:25:18;24.50;24.70
12413;DHT22;13877;18.896;-99.222;2023-02-28T04:27:45;24.50;24.70
12413;DHT22;13877;18.896;-99.222;2023-02-28T04:30:12;24.40;24.80
12413;DHT22;13877;18.896;-99.222;2023-02-28T04:32:39;24.20;25.00
12413;DHT22;13877;18.896;-99.222;2023-02-28T04:35:07;24.20;25.10
12413;DHT22;13877;18.896;-99.222;2023-02-28T04:37:34;24.20;25.20
12413;DHT22;13877;18.896;-99.222;2023-02-28T04:40:03;24.00;25.30
12413;DHT22;13877;18.896;-99.222;2023-02-28T04:42:30;24.10;25.60
12413;DHT22;13877;18.896;-99.222;2023-02-28T04:45:03;24.10;25.60
12413;DHT22;13877;18.896;-99.222;2023-02-28T04:47:30;24.10;25.80
12413;DHT22;13877;18.896;-99.222;2023-02-28T04:49:57;24.10;25.80
12413;DHT22;13877;18.896;-99.222;2023-02-28T04:52:24;24.10;25.90
12413;DHT22;13877;18.896;-99.222;2023-02-28T04:54:51;24.00;26.00
12413;DHT22;13877;18.896;-99.222;2023-02-28T04:57:18;24.00;26.30
12413;DHT22;13877;18.896;-99.222;2023-02-28T04:59:45;23.80;26.10
12413;DHT22;13877;18.896;-99.222;2023-02-28T05:02:12;23.80;26.20
12413;DHT22;13877;18.896;-99.222;2023-02-28T05:04:39;23.80;25.90
12413;DHT22;13877;18.896;-99.222;2023-02-28T05:07:06;23.80;25.80
12413;DHT22;13877;18.896;-99.222;2023-02-28T05:09:33;23.90;25.80
12413;DHT22;13877;18.896;-99.222;2023-02-28T05:12:01;24.00;25.50
12413;DHT22;13877;18.896;-99.222;2023-02-28T05:14:28;24.20;25.50
12413;DHT22;13877;18.896;-99.222;2023-02-28T05:16:55;24.30;25.20
12413;DHT22;13877;18.896;-99.222;2023-02-28T05:19:22;24.30;25.20
12413;DHT22;13877;18.896;-99.222;2023-02-28T05:21:54;24.40;25.20
12413;DHT22;13877;18.896;-99.222;2023-02-28T05:24:22;24.30;25.20
12413;DHT22;13877;18.896;-99.222;2023-02-28T05:26:50;24.20;26.00
12413;DHT22;13877;18.896;-99.222;2023-02-28T05:29:18;23.90;26.50
12413;DHT22;13877;18.896;-99.222;2023-02-28T05:31:45;23.60;27.20
12413;DHT22;13877;18.896;-99.222;2023-02-28T05:34:13;23.50;27.80
12413;DHT22;13877;18.896;-99.222;2023-02-28T05:36:42;23.30;28.10
12413;DHT22;13877;18.896;-99.222;2023-02-28T05:39:09;23.20;28.60
12413;DHT22;13877;18.896;-99.222;2023-02-28T05:41:41;22.90;28.70
12413;DHT22;13877;18.896;-99.222;2023-02-28T05:44:08;22.70;28.90
12413;DHT22;13877;18.896;-99.222;2023-02-28T05:46:35;22.60;29.40
12413;DHT22;13877;18.896;-99.222;2023-02-28T05:49:02;22.60;29.30
12413;DHT22;13877;18.896;-99.222;2023-02-28T05:51:29;22.40;29.30
12413;DHT22;13877;18.896;-99.222;2023-02-28T05:53:59;22.30;29.40
12413;DHT22;13877;18.896;-99.222;2023-02-28T05:56:28;22.10;29.50
12413;DHT22;13877;18.896;-99.222;2023-02-28T05:58:55;22.10;29.30
12413;DHT22;13877;18.896;-99.222;2023-02-28T06:03:52;22.30;28.90
12413;DHT22;13877;18.896;-99.222;2023-02-28T06:06:19;22.40;28.00
12413;DHT22;13877;18.896;-99.222;2023-02-28T06:08:46;22.50;27.60
12413;DHT22;13877;18.896;-99.222;2023-02-28T06:11:13;22.50;27.50
12413;DHT22;13877;18.896;-99.222;2023-02-28T06:13:40;22.60;27.40
12413;DHT22;13877;18.896;-99.222;2023-02-28T06:16:10;22.60;27.40
12413;DHT22;13877;18.896;-99.222;2023-02-28T06:18:38;22.80;26.60
12413;DHT22;13877;18.896;-99.222;2023-02-28T06:21:05;22.80;25.90
12413;DHT22;13877;18.896;-99.222;2023-02-28T06:23:32;23.00;25.60
12413;DHT22;13877;18.896;-99.222;2023-02-28T06:25:59;23.00;25.30
12413;DHT22;13877;18.896;-99.222;2023-02-28T06:28:26;23.00;25.00
12413;DHT22;13877;18.896;-99.222;2023-02-28T06:30:53;23.00;25.10
12413;DHT22;13877;18.896;-99.222;2023-02-28T06:33:20;22.90;25.20
12413;DHT22;13877;18.896;-99.222;2023-02-28T06:35:50;22.90;25.00
12413;DHT22;13877;18.896;-99.222;2023-02-28T06:38:17;22.80;25.00
12413;DHT22;13877;18.896;-99.222;2023-02-28T06:40:45;22.70;25.20
12413;DHT22;13877;18.896;-99.222;2023-02-28T06:43:19;22.60;25.30
12413;DHT22;13877;18.896;-99.222;2023-02-28T06:45:46;22.40;26.00
12413;DHT22;13877;18.896;-99.222;2023-02-28T06:48:13;22.20;26.20
12413;DHT22;13877;18.896;-99.222;2023-02-28T06:50:41;22.10;26.40
12413;DHT22;13877;18.896;-99.222;2023-02-28T06:53:08;22.10;26.60
12413;DHT22;13877;18.896;-99.222;2023-02-28T06:55:37;21.90;27.10
12413;DHT22;13877;18.896;-99.222;2023-02-28T06:58:06;21.50;27.60
12413;DHT22;13877;18.896;-99.222;2023-02-28T07:00:42;21.50;27.70
12413;DHT22;13877;18.896;-99.222;2023-02-28T07:03:11;21.30;27.80
12413;DHT22;13877;18.896;-99.222;2023-02-28T07:05:39;21.00;28.30
12413;DHT22;13877;18.896;-99.222;2023-02-28T07:08:06;20.80;28.70
12413;DHT22;13877;18.896;-99.222;2023-02-28T07:10:34;20.80;28.30
12413;DHT22;13877;18.896;-99.222;2023-02-28T07:13:00;20.90;28.30
12413;DHT22;13877;18.896;-99.222;2023-02-28T07:15:28;21.10;28.30
12413;DHT22;13877;18.896;-99.222;2023-02-28T07:17:54;21.20;28.10
12413;DHT22;13877;18.896;-99.222;2023-02-28T07:20:23;21.30;28.30
12413;DHT22;13877;18.896;-99.222;2023-02-28T07:22:51;21.20;28.10
12413;DHT22;13877;18.896;-99.222;2023-02-28T07:25:27;21.10;27.50
12413;DHT22;13877;18.896;-99.222;2023-02-28T07:27:56;21.30;26.20
12413;DHT22;13877;18.896;-99.222;2023-02-28T07:30:23;21.60;26.20
12413;DHT22;13877;18.896;-99.222;2023-02-28T07:32:50;21.70;25.70
12413;DHT22;13877;18.896;-99.222;2023-02-28T07:35:17;21.90;25.50
12413;DHT22;13877;18.896;-99.222;2023-02-28T07:37:44;22.10;24.90
12413;DHT22;13877;18.896;-99.222;2023-02-28T07:40:11;22.20;25.10
12413;DHT22;13877;18.896;-99.222;2023-02-28T07:42:40;22.10;25.00
12413;DHT22;13877;18.896;-99.222;2023-02-28T07:45:09;22.00;25.20
12413;DHT22;13877;18.896;-99.222;2023-02-28T07:47:38;22.10;24.90
12413;DHT22;13877;18.896;-99.222;2023-02-28T07:50:07;21.90;25.30
12413;DHT22;13877;18.896;-99.222;2023-02-28T07:52:35;21.70;25.90
12413;DHT22;13877;18.896;-99.222;2023-02-28T07:55:02;21.60;26.20
12413;DHT22;13877;18.896;-99.222;2023-02-28T07:57:31;21.40;26.70
12413;DHT22;13877;18.896;-99.222;2023-02-28T07:59:58;21.00;27.10
12413;DHT22;13877;18.896;-99.222;2023-02-28T08:02:25;20.80;27.70
12413;DHT22;13877;18.896;-99.222;2023-02-28T08:04:52;20.50;28.30
12413;DHT22;13877;18.896;-99.222;2023-02-28T08:07:19;20.70;27.80
12413;DHT22;13877;18.896;-99.222;2023-02-28T08:09:46;20.70;27.60
12413;DHT22;13877;18.896;-99.222;2023-02-28T08:12:13;20.80;27.30
12413;DHT22;13877;18.896;-99.222;2023-02-28T08:14:41;20.90;27.20
12413;DHT22;13877;18.896;-99.222;2023-02-28T08:17:09;21.00;27.60
12413;DHT22;13877;18.896;-99.222;2023-02-28T08:19:37;20.90;27.10
12413;DHT22;13877;18.896;-99.222;2023-02-28T08:22:04;20.90;27.00
12413;DHT22;13877;18.896;-99.222;2023-02-28T08:24:30;20.90;27.00
12413;DHT22;13877;18.896;-99.222;2023-02-28T08:26:58;20.90;27.20
12413;DHT22;13877;18.896;-99.222;2023-02-28T08:29:25;20.90;27.10
12413;DHT22;13877;18.896;-99.222;2023-02-28T08:31:52;20.80;27.30
12413;DHT22;13877;18.896;-99.222;2023-02-28T08:34:19;20.80;27.50
12413;DHT22;13877;18.896;-99.222;2023-02-28T08:36:46;20.70;27.80
12413;DHT22;13877;18.896;-99.222;2023-02-28T08:39:13;20.40;28.10
12413;DHT22;13877;18.896;-99.222;2023-02-28T08:41:41;20.40;28.30
12413;DHT22;13877;18.896;-99.222;2023-02-28T08:44:08;20.40;28.40
12413;DHT22;13877;18.896;-99.222;2023-02-28T08:46:35;20.30;28.50
12413;DHT22;13877;18.896;-99.222;2023-02-28T08:49:02;20.30;29.10
12413;DHT22;13877;18.896;-99.222;2023-02-28T08:51:29;20.30;28.90
12413;DHT22;13877;18.896;-99.222;2023-02-28T08:53:59;20.20;29.50
12413;DHT22;13877;18.896;-99.222;2023-02-28T08:56:27;20.20;29.40
12413;DHT22;13877;18.896;-99.222;2023-02-28T08:58:56;20.30;29.20
12413;DHT22;13877;18.896;-99.222;2023-02-28T09:01:27;20.40;28.80
12413;DHT22;13877;18.896;-99.222;2023-02-28T09:03:56;20.50;28.70
12413;DHT22;13877;18.896;-99.222;2023-02-28T09:06:24;20.50;28.40
12413;DHT22;13877;18.896;-99.222;2023-02-28T09:08:52;20.50;28.50
12413;DHT22;13877;18.896;-99.222;2023-02-28T09:11:19;20.60;28.30
12413;DHT22;13877;18.896;-99.222;2023-02-28T09:13:47;20.70;28.10
12413;DHT22;13877;18.896;-99.222;2023-02-28T09:16:15;20.60;28.20
12413;DHT22;13877;18.896;-99.222;2023-02-28T09:18:43;20.50;28.30
12413;DHT22;13877;18.896;-99.222;2023-02-28T09:21:14;20.50;28.50
12413;DHT22;13877;18.896;-99.222;2023-02-28T09:23:42;20.30;29.00
12413;DHT22;13877;18.896;-99.222;2023-02-28T09:26:17;20.30;28.90
12413;DHT22;13877;18.896;-99.222;2023-02-28T09:28:46;20.20;29.10
12413;DHT22;13877;18.896;-99.222;2023-02-28T09:31:18;20.10;29.30
12413;DHT22;13877;18.896;-99.222;2023-02-28T09:33:50;20.00;29.20
12413;DHT22;13877;18.896;-99.222;2023-02-28T09:36:17;20.00;29.30
12413;DHT22;13877;18.896;-99.222;2023-02-28T09:38:45;19.80;29.50
12413;DHT22;13877;18.896;-99.222;2023-02-28T09:41:19;19.70;29.70
12413;DHT22;13877;18.896;-99.222;2023-02-28T09:43:58;19.70;29.60
12413;DHT22;13877;18.896;-99.222;2023-02-28T09:49:11;19.90;29.70
12413;DHT22;13877;18.896;-99.222;2023-02-28T09:52:01;19.70;29.70
12413;DHT22;13877;18.896;-99.222;2023-02-28T09:54:32;19.70;29.40
12413;DHT22;13877;18.896;-99.222;2023-02-28T09:59:39;19.60;29.40
12413;DHT22;13877;18.896;-99.222;2023-02-28T10:04:52;19.70;29.40
12413;DHT22;13877;18.896;-99.222;2023-02-28T10:07:40;19.80;29.40
12413;DHT22;13877;18.896;-99.222;2023-02-28T10:10:29;19.70;29.10
12413;DHT22;13877;18.896;-99.222;2023-02-28T10:13:02;19.70;29.30
12413;DHT22;13877;18.896;-99.222;2023-02-28T10:15:32;19.80;29.00
12413;DHT22;13877;18.896;-99.222;2023-02-28T10:18:06;19.90;28.50
12413;DHT22;13877;18.896;-99.222;2023-02-28T10:20:39;20.00;28.10
12413;DHT22;13877;18.896;-99.222;2023-02-28T10:23:42;20.10;28.40
12413;DHT22;13877;18.896;-99.222;2023-02-28T10:26:12;20.00;28.20
12413;DHT22;13877;18.896;-99.222;2023-02-28T10:28:40;20.10;28.00
12413;DHT22;13877;18.896;-99.222;2023-02-28T10:31:15;20.10;28.10
12413;DHT22;13877;18.896;-99.222;2023-02-28T10:33:45;20.10;28.10
12413;DHT22;13877;18.896;-99.222;2023-02-28T10:36:17;20.00;28.40
12413;DHT22;13877;18.896;-99.222;2023-02-28T10:38:46;19.90;28.40
12413;DHT22;13877;18.896;-99.222;2023-02-28T10:41:31;19.90;28.30
12413;DHT22;13877;18.896;-99.222;2023-02-28T10:44:21;19.90;28.30
12413;DHT22;13877;18.896;-99.222;2023-02-28T10:46:49;19.90;28.20
12413;DHT22;13877;18.896;-99.222;2023-02-28T10:49:26;20.00;28.30
12413;DHT22;13877;18.896;-99.222;2023-02-28T10:51:59;19.90;28.10
12413;DHT22;13877;18.896;-99.222;2023-02-28T10:54:34;19.80;28.40
12413;DHT22;13877;18.896;-99.222;2023-02-28T10:57:22;19.70;28.60
12413;DHT22;13877;18.896;-99.222;2023-02-28T10:59:52;19.50;29.50
12413;DHT22;13877;18.896;-99.222;2023-02-28T11:02:34;19.10;30.80
12413;DHT22;13877;18.896;-99.222;2023-02-28T11:05:01;18.90;31.70
12413;DHT22;13877;18.896;-99.222;2023-02-28T11:07:28;18.80;32.30
12413;DHT22;13877;18.896;-99.222;2023-02-28T11:09:57;18.50;32.70
12413;DHT22;13877;18.896;-99.222;2023-02-28T11:12:28;18.10;33.30
12413;DHT22;13877;18.896;-99.222;2023-02-28T11:14:59;17.90;34.10
12413;DHT22;13877;18.896;-99.222;2023-02-28T11:17:29;17.60;35.50
12413;DHT22;13877;18.896;-99.222;2023-02-28T11:20:00;17.40;35.20
12413;DHT22;13877;18.896;-99.222;2023-02-28T11:22:37;17.30;36.00
12413;DHT22;13877;18.896;-99.222;2023-02-28T11:25:19;17.30;36.20
12413;DHT22;13877;18.896;-99.222;2023-02-28T11:27:49;17.30;36.10
12413;DHT22;13877;18.896;-99.222;2023-02-28T11:30:37;17.40;36.00
12413;DHT22;13877;18.896;-99.222;2023-02-28T11:33:30;17.40;36.40
12413;DHT22;13877;18.896;-99.222;2023-02-28T11:36:08;17.30;36.80
12413;DHT22;13877;18.896;-99.222;2023-02-28T11:38:36;17.20;37.10
12413;DHT22;13877;18.896;-99.222;2023-02-28T11:46:56;17.40;36.70
12413;DHT22;13877;18.896;-99.222;2023-02-28T11:49:48;17.30;36.80
12413;DHT22;13877;18.896;-99.222;2023-02-28T11:55:25;17.20;36.00
12413;DHT22;13877;18.896;-99.222;2023-02-28T12:06:01;17.50;37.60
12413;DHT22;13877;18.896;-99.222;2023-02-28T12:27:54;17.30;36.70
12413;DHT22;13877;18.896;-99.222;2023-02-28T12:30:33;17.30;36.20
12413;DHT22;13877;18.896;-99.222;2023-02-28T12:33:13;17.20;36.70
12413;DHT22;13877;18.896;-99.222;2023-02-28T12:35:57;17.30;37.50
12413;DHT22;13877;18.896;-99.222;2023-02-28T12:38:38;17.20;37.40
12413;DHT22;13877;18.896;-99.222;2023-02-28T12:46:55;17.10;37.20
12413;DHT22;13877;18.896;-99.222;2023-02-28T12:49:32;16.90;37.40
12413;DHT22;13877;18.896;-99.222;2023-02-28T12:52:02;16.90;37.30
12413;DHT22;13877;18.896;-99.222;2023-02-28T12:59:54;16.50;37.50
12413;DHT22;13877;18.896;-99.222;2023-02-28T13:11:07;17.80;35.90
12413;DHT22;13877;18.896;-99.222;2023-02-28T13:14:03;17.90;35.90
12413;DHT22;13877;18.896;-99.222;2023-02-28T13:19:22;17.70;36.90
12413;DHT22;13877;18.896;-99.222;2023-02-28T13:21:51;17.60;37.80
12413;DHT22;13877;18.896;-99.222;2023-02-28T13:24:45;17.40;38.70
12413;DHT22;13877;18.896;-99.222;2023-02-28T13:29:44;17.30;40.80
12413;DHT22;13877;18.896;-99.222;2023-02-28T13:37:44;17.60;40.00
12413;DHT22;13877;18.896;-99.222;2023-02-28T13:40:33;17.70;39.40
12413;DHT22;13877;18.896;-99.222;2023-02-28T13:43:08;17.80;40.10
12413;DHT22;13877;18.896;-99.222;2023-02-28T13:45:35;18.10;39.20
12413;DHT22;13877;18.896;-99.222;2023-02-28T13:48:25;18.70;39.80
12413;DHT22;13877;18.896;-99.222;2023-02-28T13:50:54;19.20;39.50
12413;DHT22;13877;18.896;-99.222;2023-02-28T13:53:49;19.60;37.00
12413;DHT22;13877;18.896;-99.222;2023-02-28T13:56:48;19.80;37.10
12413;DHT22;13877;18.896;-99.222;2023-02-28T13:59:44;19.90;37.60
12413;DHT22;13877;18.896;-99.222;2023-02-28T14:02:34;20.20;38.30
12413;DHT22;13877;18.896;-99.222;2023-02-28T14:05:17;20.50;37.90
12413;DHT22;13877;18.896;-99.222;2023-02-28T14:07:50;20.70;37.70
12413;DHT22;13877;18.896;-99.222;2023-02-28T14:10:31;20.90;37.10
12413;DHT22;13877;18.896;-99.222;2023-02-28T14:13:01;21.10;37.70
12413;DHT22;13877;18.896;-99.222;2023-02-28T14:18:33;21.60;38.60
12413;DHT22;13877;18.896;-99.222;2023-02-28T14:21:14;21.90;38.40
12413;DHT22;13877;18.896;-99.222;2023-02-28T14:24:13;22.00;39.40
12413;DHT22;13877;18.896;-99.222;2023-02-28T14:26:55;22.20;39.60
12413;DHT22;13877;18.896;-99.222;2023-02-28T14:32:15;22.30;39.80
12413;DHT22;13877;18.896;-99.222;2023-02-28T14:34:53;22.60;38.60
12413;DHT22;13877;18.896;-99.222;2023-02-28T14:37:27;22.80;38.10
12413;DHT22;13877;18.896;-99.222;2023-02-28T14:39:54;22.90;37.80
12413;DHT22;13877;18.896;-99.222;2023-02-28T14:42:54;23.40;37.40
12413;DHT22;13877;18.896;-99.222;2023-02-28T14:45:22;23.80;36.70
12413;DHT22;13877;18.896;-99.222;2023-02-28T14:47:50;24.50;35.60
12413;DHT22;13877;18.896;-99.222;2023-02-28T14:50:35;25.00;34.60
12413;DHT22;13877;18.896;-99.222;2023-02-28T14:53:03;25.30;33.30
12413;DHT22;13877;18.896;-99.222;2023-02-28T14:55:35;25.40;33.00
12413;DHT22;13877;18.896;-99.222;2023-02-28T14:58:05;25.00;32.30
12413;DHT22;13877;18.896;-99.222;2023-02-28T15:00:42;24.90;31.80
12413;DHT22;13877;18.896;-99.222;2023-02-28T15:06:02;24.90;32.60
12413;DHT22;13877;18.896;-99.222;2023-02-28T15:08:30;25.00;31.40
12413;DHT22;13877;18.896;-99.222;2023-02-28T15:11:17;25.30;31.50
12413;DHT22;13877;18.896;-99.222;2023-02-28T15:13:53;25.40;31.20
12413;DHT22;13877;18.896;-99.222;2023-02-28T15:16:25;25.30;31.70
12413;DHT22;13877;18.896;-99.222;2023-02-28T15:18:56;25.50;32.00
12413;DHT22;13877;18.896;-99.222;2023-02-28T15:21:44;26.00;32.00
12413;DHT22;13877;18.896;-99.222;2023-02-28T15:26:58;25.50;32.70
12413;DHT22;13877;18.896;-99.222;2023-02-28T15:29:29;26.00;32.30
12413;DHT22;13877;18.896;-99.222;2023-02-28T15:32:16;26.40;31.50
12413;DHT22;13877;18.896;-99.222;2023-02-28T15:34:47;26.30;31.40
12413;DHT22;13877;18.896;-99.222;2023-02-28T15:37:47;26.40;31.40
12413;DHT22;13877;18.896;-99.222;2023-02-28T15:40:26;26.30;30.10
12413;DHT22;13877;18.896;-99.222;2023-02-28T15:43:06;26.80;29.10
12413;DHT22;13877;18.896;-99.222;2023-02-28T15:45:44;27.00;28.60
12413;DHT22;13877;18.896;-99.222;2023-02-28T15:48:20;27.10;28.70
12413;DHT22;13877;18.896;-99.222;2023-02-28T15:50:57;27.10;28.10
12413;DHT22;13877;18.896;-99.222;2023-02-28T15:53:35;26.80;28.10
12413;DHT22;13877;18.896;-99.222;2023-02-28T15:56:13;27.50;27.70
12413;DHT22;13877;18.896;-99.222;2023-02-28T15:58:43;27.30;28.30
12413;DHT22;13877;18.896;-99.222;2023-02-28T16:01:21;28.20;27.30
12413;DHT22;13877;18.896;-99.222;2023-02-28T16:03:53;28.20;27.60
12413;DHT22;13877;18.896;-99.222;2023-02-28T16:06:35;27.50;28.80
12413;DHT22;13877;18.896;-99.222;2023-02-28T16:09:04;27.40;30.20
12413;DHT22;13877;18.896;-99.222;2023-02-28T16:11:38;27.90;28.70
12413;DHT22;13877;18.896;-99.222;2023-02-28T16:14:05;27.80;28.60
12413;DHT22;13877;18.896;-99.222;2023-02-28T16:16:33;28.20;27.80
12413;DHT22;13877;18.896;-99.222;2023-02-28T16:19:00;28.60;27.20
12413;DHT22;13877;18.896;-99.222;2023-02-28T16:21:27;28.30;27.60
12413;DHT22;13877;18.896;-99.222;2023-02-28T16:23:54;28.50;27.20
12413;DHT22;13877;18.896;-99.222;2023-02-28T16:26:23;28.60;27.10
12413;DHT22;13877;18.896;-99.222;2023-02-28T16:28:53;29.20;27.10
12413;DHT22;13877;18.896;-99.222;2023-02-28T16:31:21;28.90;27.80
12413;DHT22;13877;18.896;-99.222;2023-02-28T16:33:48;29.30;27.30
12413;DHT22;13877;18.896;-99.222;2023-02-28T16:36:19;28.60;28.10
12413;DHT22;13877;18.896;-99.222;2023-02-28T16:38:46;28.40;27.50
12413;DHT22;13877;18.896;-99.222;2023-02-28T16:41:19;29.10;27.50
12413;DHT22;13877;18.896;-99.222;2023-02-28T16:43:51;29.50;26.80
12413;DHT22;13877;18.896;-99.222;2023-02-28T16:46:20;29.50;26.50
12413;DHT22;13877;18.896;-99.222;2023-02-28T16:48:48;29.80;26.30
12413;DHT22;13877;18.896;-99.222;2023-02-28T16:51:19;29.70;26.10
12413;DHT22;13877;18.896;-99.222;2023-02-28T16:53:47;30.10;26.30
12413;DHT22;13877;18.896;-99.222;2023-02-28T16:56:21;30.30;25.70
12413;DHT22;13877;18.896;-99.222;2023-02-28T16:58:50;30.00;25.60
12413;DHT22;13877;18.896;-99.222;2023-02-28T17:01:18;30.40;24.70
12413;DHT22;13877;18.896;-99.222;2023-02-28T17:03:49;30.90;25.20
12413;DHT22;13877;18.896;-99.222;2023-02-28T17:08:51;30.20;24.90
12413;DHT22;13877;18.896;-99.222;2023-02-28T17:11:19;30.60;24.70
12413;DHT22;13877;18.896;-99.222;2023-02-28T17:13:46;30.70;24.00
12413;DHT22;13877;18.896;-99.222;2023-02-28T17:16:20;30.40;25.80
12413;DHT22;13877;18.896;-99.222;2023-02-28T17:18:48;30.60;25.80
12413;DHT22;13877;18.896;-99.222;2023-02-28T17:21:16;30.00;24.90
12413;DHT22;13877;18.896;-99.222;2023-02-28T17:23:43;30.40;25.20
12413;DHT22;13877;18.896;-99.222;2023-02-28T17:26:16;29.80;25.10
12413;DHT22;13877;18.896;-99.222;2023-02-28T17:28:48;30.40;24.00
12413;DHT22;13877;18.896;-99.222;2023-02-28T17:31:15;30.70;24.00